sensor_id;sensor_type;location;lat;lon;timestamp;pressure;altitude;pressure_sealevel;temperature;humidity
38880;BME280;25887;30.194;-97.880;2023-04-05T00:00:54;97111.59;;;30.91;48.76
38880;BME280;25887;30.194;-97.880;2023-04-05T00:03:20;97119.53;;;30.83;48.93
38880;BME280;25887;30.194;-97.880;2023-04-05T00:05:47;97123.63;;;30.77;48.88
38880;BME280;25887;30.194;-97.880;2023-04-05T00:08:14;97133.03;;;30.72;49.24
38880;BME280;25887;30.194;-97.880;2023-04-05T00:10:52;97146.03;;;30.65;49.49
38880;BME280;25887;30.194;-97.880;2023-04-05T00:13:19;97143.22;;;30.59;49.58
38880;BME280;25887;30.194;-97.880;2023-04-05T00:15:48;97156.53;;;30.49;50.22
38880;BME280;25887;30.194;-97.880;2023-04-05T00:18:15;97154.97;;;30.38;50.50
38880;BME280;25887;30.194;-97.880;2023-04-05T00:20:51;97158.38;;;30.31;50.54
38880;BME280;25887;30.194;-97.880;2023-04-05T00:23:40;97161.50;;;30.26;50.70
38880;BME280;25887;30.194;-97.880;2023-04-05T00:26:10;97160.59;;;30.17;51.10
38880;BME280;25887;30.194;-97.880;2023-04-05T00:28:37;97164.16;;;30.08;51.55
38880;BME280;25887;30.194;-97.880;2023-04-05T00:31:04;97177.28;;;30.00;51.93
38880;BME280;25887;30.194;-97.880;2023-04-05T00:33:30;97173.41;;;29.94;52.38
38880;BME280;25887;30.194;-97.880;2023-04-05T00:35:57;97175.16;;;29.86;52.15
38880;BME280;25887;30.194;-97.880;2023-04-05T00:38:26;97170.44;;;29.80;52.50
38880;BME280;25887;30.194;-97.880;2023-04-05T00:44:14;97171.81;;;29.66;52.72
38880;BME280;25887;30.194;-97.880;2023-04-05T00:46:40;97165.47;;;29.59;53.03
38880;BME280;25887;30.194;-97.880;2023-04-05T00:49:07;97178.97;;;29.56;53.55
38880;BME280;25887;30.194;-97.880;2023-04-05T00:51:33;97190.84;;;29.52;53.43
38880;BME280;25887;30.194;-97.880;2023-04-05T00:54:00;97201.59;;;29.50;53.18
38880;BME280;25887;30.194;-97.880;2023-04-05T00:56:28;97209.63;;;29.49;53.42
38880;BME280;25887;30.194;-97.880;2023-04-05T00:58:55;97213.25;;;29.48;53.75
38880;BME280;25887;30.194;-97.880;2023-04-05T01:01:23;97208.25;;;29.45;53.62
38880;BME280;25887;30.194;-97.880;2023-04-05T01:03:57;97205.88;;;29.41;54.03
38880;BME280;25887;30.194;-97.880;2023-04-05T01:12:23;97217.66;;;29.29;54.38
38880;BME280;25887;30.194;-97.880;2023-04-05T01:14:52;97217.25;;;29.24;54.43
38880;BME280;25887;30.194;-97.880;2023-04-05T01:17:20;97208.94;;;29.19;54.73
38880;BME280;25887;30.194;-97.880;2023-04-05T01:19:59;97231.50;;;29.13;54.88
38880;BME280;25887;30.194;-97.880;2023-04-05T01:31:35;97284.84;;;28.99;55.31
38880;BME280;25887;30.194;-97.880;2023-04-05T01:34:24;97296.25;;;29.00;55.23
38880;BME280;25887;30.194;-97.880;2023-04-05T01:36:56;97285.66;;;29.00;55.35
38880;BME280;25887;30.194;-97.880;2023-04-05T01:39:24;97278.88;;;28.97;55.15
38880;BME280;25887;30.194;-97.880;2023-04-05T01:41:50;97287.78;;;28.96;55.22
38880;BME280;25887;30.194;-97.880;2023-04-05T01:44:16;97309.75;;;28.97;55.61
38880;BME280;25887;30.194;-97.880;2023-04-05T01:46:42;97343.31;;;28.96;55.69
38880;BME280;25887;30.194;-97.880;2023-04-05T01:49:09;97355.69;;;28.96;55.91
38880;BME280;25887;30.194;-97.880;2023-04-05T01:51:38;97358.34;;;28.96;55.76
38880;BME280;25887;30.194;-97.880;2023-04-05T01:56:56;97353.59;;;28.99;55.95
38880;BME280;25887;30.194;-97.880;2023-04-05T01:59:22;97367.78;;;28.98;55.81
38880;BME280;25887;30.194;-97.880;2023-04-05T02:01:49;97381.84;;;28.99;55.53
38880;BME280;25887;30.194;-97.880;2023-04-05T02:04:15;97381.69;;;29.00;55.40
38880;BME280;25887;30.194;-97.880;2023-04-05T02:06:41;97368.63;;;28.99;55.99
38880;BME280;25887;30.194;-97.880;2023-04-05T02:09:07;97361.81;;;28.96;55.92
38880;BME280;25887;30.194;-97.880;2023-04-05T02:11:34;97375.16;;;28.95;55.94
38880;BME280;25887;30.194;-97.880;2023-04-05T02:14:19;97385.03;;;28.93;55.98
38880;BME280;25887;30.194;-97.880;2023-04-05T02:16:45;97409.34;;;28.86;56.44
38880;BME280;25887;30.194;-97.880;2023-04-05T02:19:12;97444.00;;;28.83;56.02
38880;BME280;25887;30.194;-97.880;2023-04-05T02:21:40;97471.44;;;28.82;56.49
38880;BME280;25887;30.194;-97.880;2023-04-05T02:24:07;97469.75;;;28.81;56.17
38880;BME280;25887;30.194;-97.880;2023-04-05T02:26:33;97485.63;;;28.81;56.70
38880;BME280;25887;30.194;-97.880;2023-04-05T02:29:08;97497.03;;;28.82;56.45
38880;BME280;25887;30.194;-97.880;2023-04-05T02:31:34;97485.63;;;28.81;56.26
38880;BME280;25887;30.194;-97.880;2023-04-05T02:34:31;97462.81;;;28.80;56.34
38880;BME280;25887;30.194;-97.880;2023-04-05T02:37:06;97449.97;;;28.76;56.45
38880;BME280;25887;30.194;-97.880;2023-04-05T02:39:32;97444.25;;;28.71;56.86
38880;BME280;25887;30.194;-97.880;2023-04-05T02:41:59;97442.72;;;28.68;57.04
38880;BME280;25887;30.194;-97.880;2023-04-05T02:44:28;97447.56;;;28.63;57.07
38880;BME280;25887;30.194;-97.880;2023-04-05T02:46:54;97450.50;;;28.60;57.60
38880;BME280;25887;30.194;-97.880;2023-04-05T02:49:20;97414.88;;;28.54;57.62
38880;BME280;25887;30.194;-97.880;2023-04-05T02:51:46;97437.13;;;28.52;58.06
38880;BME280;25887;30.194;-97.880;2023-04-05T02:54:12;97413.63;;;28.49;57.64
38880;BME280;25887;30.194;-97.880;2023-04-05T02:56:39;97403.31;;;28.46;58.04
38880;BME280;25887;30.194;-97.880;2023-04-05T02:59:05;97408.88;;;28.43;57.80
38880;BME280;25887;30.194;-97.880;2023-04-05T03:01:31;97419.59;;;28.41;58.25
38880;BME280;25887;30.194;-97.880;2023-04-05T03:04:01;97424.28;;;28.38;58.25
38880;BME280;25887;30.194;-97.880;2023-04-05T03:06:27;97446.53;;;28.35;nan
38880;BME280;25887;30.194;-97.880;2023-04-05T03:08:56;97469.72;;;28.31;58.68
38880;BME280;25887;30.194;-97.880;2023-04-05T03:11:22;97470.81;;;28.29;58.71
38880;BME280;25887;30.194;-97.880;2023-04-05T03:13:48;97471.94;;;28.26;59.00
38880;BME280;25887;30.194;-97.880;2023-04-05T03:16:14;97487.03;;;28.24;58.74
38880;BME280;25887;30.194;-97.880;2023-04-05T03:18:41;97474.94;;;28.22;58.53
38880;BME280;25887;30.194;-97.880;2023-04-05T03:21:07;97508.44;;;28.21;58.81
38880;BME280;25887;30.194;-97.880;2023-04-05T03:23:36;97542.94;;;28.20;58.66
38880;BME280;25887;30.194;-97.880;2023-04-05T03:26:04;97540.97;;;28.22;58.70
38880;BME280;25887;30.194;-97.880;2023-04-05T03:28:31;97531.25;;;28.22;58.79
38880;BME280;25887;30.194;-97.880;2023-04-05T03:30:57;97535.00;;;28.20;58.66
38880;BME280;25887;30.194;-97.880;2023-04-05T03:33:24;97524.31;;;28.21;58.67
38880;BME280;25887;30.194;-97.880;2023-04-05T03:35:52;97525.00;;;28.23;58.56
38880;BME280;25887;30.194;-97.880;2023-04-05T03:38:18;97475.91;;;28.21;59.12
38880;BME280;25887;30.194;-97.880;2023-04-05T03:40:44;97322.19;;;28.17;58.98
38880;BME280;25887;30.194;-97.880;2023-04-05T03:43:10;97332.16;;;28.14;59.40
38880;BME280;25887;30.194;-97.880;2023-04-05T03:45:37;97314.22;;;28.08;59.71
38880;BME280;25887;30.194;-97.880;2023-04-05T03:48:03;97311.28;;;28.01;59.29
38880;BME280;25887;30.194;-97.880;2023-04-05T03:50:31;97331.16;;;27.95;59.79
38880;BME280;25887;30.194;-97.880;2023-04-05T03:52:57;97342.09;;;27.91;60.15
38880;BME280;25887;30.194;-97.880;2023-04-05T03:55:23;97351.13;;;27.88;59.71
38880;BME280;25887;30.194;-97.880;2023-04-05T03:57:51;97346.22;;;27.84;59.85
38880;BME280;25887;30.194;-97.880;2023-04-05T04:00:18;97371.94;;;27.82;59.87
38880;BME280;25887;30.194;-97.880;2023-04-05T04:02:48;97398.59;;;27.79;59.97
38880;BME280;25887;30.194;-97.880;2023-04-05T04:05:16;97399.44;;;27.79;60.24
38880;BME280;25887;30.194;-97.880;2023-04-05T04:07:43;97434.59;;;27.80;60.23
38880;BME280;25887;30.194;-97.880;2023-04-05T04:10:16;97454.03;;;27.79;60.34
38880;BME280;25887;30.194;-97.880;2023-04-05T04:12:45;97462.66;;;27.81;60.27
38880;BME280;25887;30.194;-97.880;2023-04-05T04:15:11;97466.25;;;27.80;60.13
38880;BME280;25887;30.194;-97.880;2023-04-05T04:17:39;97480.84;;;27.84;59.79
38880;BME280;25887;30.194;-97.880;2023-04-05T04:20:06;97499.34;;;27.84;59.73
38880;BME280;25887;30.194;-97.880;2023-04-05T04:22:36;97489.63;;;27.84;60.08
38880;BME280;25887;30.194;-97.880;2023-04-05T04:25:07;97483.50;;;27.84;60.34
38880;BME280;25887;30.194;-97.880;2023-04-05T04:27:38;97511.69;;;27.83;59.74
38880;BME280;25887;30.194;-97.880;2023-04-05T04:30:11;97518.78;;;27.83;59.98
38880;BME280;25887;30.194;-97.880;2023-04-05T04:32:38;97524.06;;;27.83;60.13
38880;BME280;25887;30.194;-97.880;2023-04-05T04:35:24;97513.78;;;27.80;60.27
38880;BME280;25887;30.194;-97.880;2023-04-05T04:38:02;97527.94;;;27.79;59.98
38880;BME280;25887;30.194;-97.880;2023-04-05T04:40:38;97541.16;;;27.79;60.07
38880;BME280;25887;30.194;-97.880;2023-04-05T04:43:09;97545.69;;;27.76;60.57
38880;BME280;25887;30.194;-97.880;2023-04-05T04:45:39;97541.16;;;27.79;60.21
38880;BME280;25887;30.194;-97.880;2023-04-05T04:48:06;97531.53;;;27.77;59.99
38880;BME280;25887;30.194;-97.880;2023-04-05T04:50:39;97542.81;;;27.80;60.00
38880;BME280;25887;30.194;-97.880;2023-04-05T04:53:05;97539.56;;;27.76;60.46
38880;BME280;25887;30.194;-97.880;2023-04-05T04:55:31;97549.31;;;27.75;60.39
38880;BME280;25887;30.194;-97.880;2023-04-05T04:57:58;97548.47;;;27.75;60.66
38880;BME280;25887;30.194;-97.880;2023-04-05T05:00:24;97545.97;;;27.73;60.51
38880;BME280;25887;30.194;-97.880;2023-04-05T05:02:51;97544.28;;;27.72;60.18
38880;BME280;25887;30.194;-97.880;2023-04-05T05:05:18;97541.78;;;27.71;60.60
38880;BME280;25887;30.194;-97.880;2023-04-05T05:07:49;97540.81;;;27.72;60.30
38880;BME280;25887;30.194;-97.880;2023-04-05T05:10:17;97543.44;;;27.72;60.27
38880;BME280;25887;30.194;-97.880;2023-04-05T05:12:43;97545.25;;;27.71;60.15
38880;BME280;25887;30.194;-97.880;2023-04-05T05:15:13;97531.22;;;27.71;60.73
38880;BME280;25887;30.194;-97.880;2023-04-05T05:17:40;97550.41;;;27.73;60.28
38880;BME280;25887;30.194;-97.880;2023-04-05T05:20:06;97532.06;;;27.71;60.51
38880;BME280;25887;30.194;-97.880;2023-04-05T05:22:37;97530.13;;;27.73;60.67
38880;BME280;25887;30.194;-97.880;2023-04-05T05:25:05;97524.00;;;27.73;60.36
38880;BME280;25887;30.194;-97.880;2023-04-05T05:27:32;97532.75;;;27.73;60.34
38880;BME280;25887;30.194;-97.880;2023-04-05T05:29:59;97533.47;;;27.75;60.32
38880;BME280;25887;30.194;-97.880;2023-04-05T05:32:25;97522.19;;;27.73;60.26
38880;BME280;25887;30.194;-97.880;2023-04-05T05:34:51;97523.88;;;27.74;60.27
38880;BME280;25887;30.194;-97.880;2023-04-05T05:37:18;97509.13;;;27.72;60.31
38880;BME280;25887;30.194;-97.880;2023-04-05T05:39:44;97516.22;;;27.71;60.46
38880;BME280;25887;30.194;-97.880;2023-04-05T05:42:10;97527.00;;;27.68;60.50
38880;BME280;25887;30.194;-97.880;2023-04-05T05:44:36;97526.28;;;27.66;60.71
38880;BME280;25887;30.194;-97.880;2023-04-05T05:47:03;97519.47;;;27.64;61.08
38880;BME280;25887;30.194;-97.880;2023-04-05T05:49:29;97537.34;;;27.60;60.96
38880;BME280;25887;30.194;-97.880;2023-04-05T05:51:56;97554.41;;;27.56;61.37
38880;BME280;25887;30.194;-97.880;2023-04-05T05:54:23;97522.97;;;27.53;61.03
38880;BME280;25887;30.194;-97.880;2023-04-05T05:56:50;97544.34;;;27.50;61.15
38880;BME280;25887;30.194;-97.880;2023-04-05T05:59:16;97529.47;;;27.49;61.04
38880;BME280;25887;30.194;-97.880;2023-04-05T06:01:42;97519.91;;;27.48;61.11
38880;BME280;25887;30.194;-97.880;2023-04-05T06:04:12;97502.38;;;27.47;61.17
38880;BME280;25887;30.194;-97.880;2023-04-05T06:06:38;97520.97;;;27.45;61.07
38880;BME280;25887;30.194;-97.880;2023-04-05T06:09:07;97538.72;;;27.43;61.17
38880;BME280;25887;30.194;-97.880;2023-04-05T06:11:34;97541.50;;;27.42;61.44
38880;BME280;25887;30.194;-97.880;2023-04-05T06:14:01;97553.84;;;27.41;61.44
38880;BME280;25887;30.194;-97.880;2023-04-05T06:16:27;97559.13;;;27.41;61.49
38880;BME280;25887;30.194;-97.880;2023-04-05T06:18:56;97575.09;;;27.40;61.26
38880;BME280;25887;30.194;-97.880;2023-04-05T06:21:23;97577.59;;;27.41;61.47
38880;BME280;25887;30.194;-97.880;2023-04-05T06:23:50;97569.69;;;27.41;61.24
38880;BME280;25887;30.194;-97.880;2023-04-05T06:26:18;97567.19;;;27.40;61.30
38880;BME280;25887;30.194;-97.880;2023-04-05T06:28:45;97564.53;;;27.40;60.94
38880;BME280;25887;30.194;-97.880;2023-04-05T06:31:15;97555.88;;;27.38;61.29
38880;BME280;25887;30.194;-97.880;2023-04-05T06:33:43;97558.66;;;27.36;61.37
38880;BME280;25887;30.194;-97.880;2023-04-05T06:36:09;97559.75;;;27.34;61.13
38880;BME280;25887;30.194;-97.880;2023-04-05T06:38:36;97532.78;;;27.30;61.10
38880;BME280;25887;30.194;-97.880;2023-04-05T06:41:02;97554.97;;;27.28;61.32
38880;BME280;25887;30.194;-97.880;2023-04-05T06:43:30;97553.44;;;27.25;61.70
38880;BME280;25887;30.194;-97.880;2023-04-05T06:45:57;97542.97;;;27.24;61.30
38880;BME280;25887;30.194;-97.880;2023-04-05T06:48:24;97538.81;;;27.21;61.77
38880;BME280;25887;30.194;-97.880;2023-04-05T06:50:57;97542.41;;;27.20;61.86
38880;BME280;25887;30.194;-97.880;2023-04-05T06:53:24;97548.66;;;27.19;61.38
38880;BME280;25887;30.194;-97.880;2023-04-05T06:55:56;97550.56;;;27.17;61.40
38880;BME280;25887;30.194;-97.880;2023-04-05T06:58:23;97550.56;;;27.17;61.37
38880;BME280;25887;30.194;-97.880;2023-04-05T07:00:55;97549.75;;;27.16;61.71
38880;BME280;25887;30.194;-97.880;2023-04-05T07:03:21;97542.75;;;27.15;61.68
38880;BME280;25887;30.194;-97.880;2023-04-05T07:05:55;97543.72;;;27.14;61.41
38880;BME280;25887;30.194;-97.880;2023-04-05T07:08:24;97525.41;;;27.13;61.48
38880;BME280;25887;30.194;-97.880;2023-04-05T07:10:51;97522.75;;;27.13;61.19
38880;BME280;25887;30.194;-97.880;2023-04-05T07:13:19;97514.97;;;27.11;61.50
38880;BME280;25887;30.194;-97.880;2023-04-05T07:15:46;97496.66;;;27.10;61.51
38880;BME280;25887;30.194;-97.880;2023-04-05T07:18:12;97499.44;;;27.08;61.84
38880;BME280;25887;30.194;-97.880;2023-04-05T07:20:41;97529.25;;;27.09;61.67
38880;BME280;25887;30.194;-97.880;2023-04-05T07:23:08;97562.81;;;27.07;61.75
38880;BME280;25887;30.194;-97.880;2023-04-05T07:25:34;97553.22;;;27.06;61.74
38880;BME280;25887;30.194;-97.880;2023-04-05T07:28:00;97526.97;;;27.04;61.40
38880;BME280;25887;30.194;-97.880;2023-04-05T07:30:27;97544.69;;;27.02;61.82
38880;BME280;25887;30.194;-97.880;2023-04-05T07:32:53;97548.19;;;27.03;61.48
38880;BME280;25887;30.194;-97.880;2023-04-05T07:35:21;97544.69;;;27.02;61.86
38880;BME280;25887;30.194;-97.880;2023-04-05T07:37:47;97547.47;;;27.01;61.68
38880;BME280;25887;30.194;-97.880;2023-04-05T07:40:13;97529.84;;;27.01;61.79
38880;BME280;25887;30.194;-97.880;2023-04-05T07:42:39;97511.41;;;27.01;61.48
38880;BME280;25887;30.194;-97.880;2023-04-05T07:45:06;97512.31;;;27.00;61.97
38880;BME280;25887;30.194;-97.880;2023-04-05T07:47:33;97511.75;;;26.97;61.81
38880;BME280;25887;30.194;-97.880;2023-04-05T07:50:00;97526.03;;;26.94;61.70
38880;BME280;25887;30.194;-97.880;2023-04-05T07:52:26;97535.81;;;26.92;62.17
38880;BME280;25887;30.194;-97.880;2023-04-05T07:54:52;97527.91;;;26.92;61.68
38880;BME280;25887;30.194;-97.880;2023-04-05T07:57:19;97536.78;;;26.91;62.02
38880;BME280;25887;30.194;-97.880;2023-04-05T07:59:46;97542.31;;;26.88;62.09
38880;BME280;25887;30.194;-97.880;2023-04-05T08:02:16;97546.06;;;26.85;61.97
38880;BME280;25887;30.194;-97.880;2023-04-05T08:04:42;97526.03;;;26.83;61.75
38880;BME280;25887;30.194;-97.880;2023-04-05T08:07:08;97525.19;;;26.82;62.25
38880;BME280;25887;30.194;-97.880;2023-04-05T08:09:35;97537.53;;;26.82;62.33
38880;BME280;25887;30.194;-97.880;2023-04-05T08:12:01;97533.34;;;26.79;62.19
38880;BME280;25887;30.194;-97.880;2023-04-05T08:14:28;97528.09;;;26.79;61.96
38880;BME280;25887;30.194;-97.880;2023-04-05T08:16:54;97525.56;;;26.78;62.39
38880;BME280;25887;30.194;-97.880;2023-04-05T08:19:20;97516.94;;;26.76;62.01
38880;BME280;25887;30.194;-97.880;2023-04-05T08:21:46;97510.00;;;26.75;61.77
38880;BME280;25887;30.194;-97.880;2023-04-05T08:24:12;97517.91;;;26.75;62.37
38880;BME280;25887;30.194;-97.880;2023-04-05T08:26:39;97529.41;;;26.74;62.21
38880;BME280;25887;30.194;-97.880;2023-04-05T08:29:06;97561.97;;;26.73;61.93
38880;BME280;25887;30.194;-97.880;2023-04-05T08:31:32;97572.53;;;26.73;61.73
38880;BME280;25887;30.194;-97.880;2023-04-05T08:33:58;97580.31;;;26.74;62.16
38880;BME280;25887;30.194;-97.880;2023-04-05T08:36:25;97563.66;;;26.74;62.09
38880;BME280;25887;30.194;-97.880;2023-04-05T08:38:53;97547.84;;;26.74;61.68
38880;BME280;25887;30.194;-97.880;2023-04-05T08:41:22;97545.22;;;26.74;61.58
38880;BME280;25887;30.194;-97.880;2023-04-05T08:44:01;97546.88;;;26.75;61.87
38880;BME280;25887;30.194;-97.880;2023-04-05T08:46:32;97551.31;;;26.74;61.56
38880;BME280;25887;30.194;-97.880;2023-04-05T08:48:59;97531.31;;;26.72;61.82
38880;BME280;25887;30.194;-97.880;2023-04-05T08:51:29;97523.53;;;26.70;61.93
38880;BME280;25887;30.194;-97.880;2023-04-05T08:53:55;97515.75;;;26.69;61.54
38880;BME280;25887;30.194;-97.880;2023-04-05T08:56:26;97524.59;;;26.67;61.92
38880;BME280;25887;30.194;-97.880;2023-04-05T08:59:02;97520.44;;;26.65;61.65
38880;BME280;25887;30.194;-97.880;2023-04-05T09:01:30;97509.31;;;26.61;61.51
38880;BME280;25887;30.194;-97.880;2023-04-05T09:04:00;97515.75;;;26.57;61.54
38880;BME280;25887;30.194;-97.880;2023-04-05T09:06:27;97516.72;;;26.56;61.67
38880;BME280;25887;30.194;-97.880;2023-04-05T09:08:57;97546.78;;;26.54;61.89
38880;BME280;25887;30.194;-97.880;2023-04-05T09:11:24;97542.44;;;26.53;61.78
38880;BME280;25887;30.194;-97.880;2023-04-05T09:13:52;97521.50;;;26.51;61.76
38880;BME280;25887;30.194;-97.880;2023-04-05T09:16:19;97540.06;;;26.50;62.22
38880;BME280;25887;30.194;-97.880;2023-04-05T09:18:45;97521.75;;;26.48;61.73
38880;BME280;25887;30.194;-97.880;2023-04-05T09:21:11;97533.25;;;26.47;61.89
38880;BME280;25887;30.194;-97.880;2023-04-05T09:23:50;97557.81;;;26.48;61.97
38880;BME280;25887;30.194;-97.880;2023-04-05T09:26:22;97523.56;;;26.48;61.59
38880;BME280;25887;30.194;-97.880;2023-04-05T09:28:48;97542.97;;;26.47;61.99
38880;BME280;25887;30.194;-97.880;2023-04-05T09:31:29;97548.22;;;26.47;61.62
38880;BME280;25887;30.194;-97.880;2023-04-05T09:34:04;97550.13;;;26.45;61.72
38880;BME280;25887;30.194;-97.880;2023-04-05T09:36:33;97559.94;;;26.43;62.02
38880;BME280;25887;30.194;-97.880;2023-04-05T09:39:07;97523.91;;;26.43;61.60
38880;BME280;25887;30.194;-97.880;2023-04-05T09:41:36;97549.28;;;26.44;61.86
38880;BME280;25887;30.194;-97.880;2023-04-05T09:44:02;97616.94;;;26.44;61.79
38880;BME280;25887;30.194;-97.880;2023-04-05T09:46:35;97585.19;;;26.45;62.08
38880;BME280;25887;30.194;-97.880;2023-04-05T09:49:05;97611.53;;;26.45;61.89
38880;BME280;25887;30.194;-97.880;2023-04-05T09:51:35;97613.25;;;26.46;61.83
38880;BME280;25887;30.194;-97.880;2023-04-05T09:56:31;97605.34;;;26.46;61.68
38880;BME280;25887;30.194;-97.880;2023-04-05T09:59:02;97571.09;;;26.46;61.51
38880;BME280;25887;30.194;-97.880;2023-04-05T10:01:31;97543.78;;;26.47;61.68
38880;BME280;25887;30.194;-97.880;2023-04-05T10:03:58;97566.75;;;26.45;61.55
38880;BME280;25887;30.194;-97.880;2023-04-05T10:06:38;97568.47;;;26.46;61.64
38880;BME280;25887;30.194;-97.880;2023-04-05T10:09:05;97581.63;;;26.46;61.71
38880;BME280;25887;30.194;-97.880;2023-04-05T10:11:32;97544.84;;;26.45;61.87
38880;BME280;25887;30.194;-97.880;2023-04-05T10:14:06;97561.63;;;26.44;61.96
38880;BME280;25887;30.194;-97.880;2023-04-05T10:16:58;97529.16;;;26.43;61.74
38880;BME280;25887;30.194;-97.880;2023-04-05T10:19:43;97557.31;;;26.43;61.47
38880;BME280;25887;30.194;-97.880;2023-04-05T10:22:16;97588.31;;;26.39;61.92
38880;BME280;25887;30.194;-97.880;2023-04-05T10:24:58;97553.13;;;26.40;61.50
38880;BME280;25887;30.194;-97.880;2023-04-05T10:30:06;97610.28;;;26.38;61.75
38880;BME280;25887;30.194;-97.880;2023-04-05T10:35:30;97560.06;;;26.41;61.64
38880;BME280;25887;30.194;-97.880;2023-04-05T10:38:25;97533.72;;;26.41;61.53
38880;BME280;25887;30.194;-97.880;2023-04-05T10:41:09;97551.44;;;26.39;61.89
38880;BME280;25887;30.194;-97.880;2023-04-05T10:43:36;97610.28;;;26.38;61.93
38880;BME280;25887;30.194;-97.880;2023-04-05T10:46:06;97612.88;;;26.40;61.56
38880;BME280;25887;30.194;-97.880;2023-04-05T10:51:30;97686.63;;;26.40;61.86
38880;BME280;25887;30.194;-97.880;2023-04-05T10:53:59;97689.00;;;26.43;61.62
38880;BME280;25887;30.194;-97.880;2023-04-05T10:56:26;97659.19;;;26.42;61.67
38880;BME280;25887;30.194;-97.880;2023-04-05T10:58:54;97674.03;;;26.43;61.38
38880;BME280;25887;30.194;-97.880;2023-04-05T11:01:21;97681.81;;;26.45;61.81
38880;BME280;25887;30.194;-97.880;2023-04-05T11:03:49;97687.09;;;26.45;61.83
38880;BME280;25887;30.194;-97.880;2023-04-05T11:06:21;97684.47;;;26.45;61.74
38880;BME280;25887;30.194;-97.880;2023-04-05T11:08:52;97700.16;;;26.46;61.45
38880;BME280;25887;30.194;-97.880;2023-04-05T11:11:22;97676.47;;;26.46;61.76
38880;BME280;25887;30.194;-97.880;2023-04-05T11:13:49;97686.03;;;26.47;61.91
38880;BME280;25887;30.194;-97.880;2023-04-05T11:16:16;97665.94;;;26.46;61.47
38880;BME280;25887;30.194;-97.880;2023-04-05T11:18:47;97672.13;;;26.45;62.08
38880;BME280;25887;30.194;-97.880;2023-04-05T11:21:21;97707.31;;;26.44;61.54
38880;BME280;25887;30.194;-97.880;2023-04-05T11:24:03;97726.59;;;26.45;61.43
38880;BME280;25887;30.194;-97.880;2023-04-05T11:26:54;97694.16;;;26.44;61.76
38880;BME280;25887;30.194;-97.880;2023-04-05T11:29:46;97666.84;;;26.45;61.83
38880;BME280;25887;30.194;-97.880;2023-04-05T11:32:16;97693.44;;;26.42;61.67
38880;BME280;25887;30.194;-97.880;2023-04-05T11:34:43;97668.06;;;26.41;61.88
38880;BME280;25887;30.194;-97.880;2023-04-05T11:37:10;97650.75;;;26.37;61.80
38880;BME280;25887;30.194;-97.880;2023-04-05T11:39:36;97654.34;;;26.36;62.07
38880;BME280;25887;30.194;-97.880;2023-04-05T11:42:10;97616.53;;;26.37;61.93
38880;BME280;25887;30.194;-97.880;2023-04-05T11:44:49;97662.25;;;26.36;61.73
38880;BME280;25887;30.194;-97.880;2023-04-05T11:47:18;97673.75;;;26.35;62.04
38880;BME280;25887;30.194;-97.880;2023-04-05T11:49:51;97675.53;;;26.34;62.10
38880;BME280;25887;30.194;-97.880;2023-04-05T11:52:19;97643.81;;;26.36;61.82
38880;BME280;25887;30.194;-97.880;2023-04-05T11:54:46;97667.53;;;26.36;61.83
38880;BME280;25887;30.194;-97.880;2023-04-05T11:57:18;97673.75;;;26.35;62.00
38880;BME280;25887;30.194;-97.880;2023-04-05T11:59:45;97690.50;;;26.34;62.02
38880;BME280;25887;30.194;-97.880;2023-04-05T12:02:11;97680.09;;;26.32;62.17
38880;BME280;25887;30.194;-97.880;2023-04-05T12:04:38;97730.03;;;26.34;62.20
38880;BME280;25887;30.194;-97.880;2023-04-05T12:10:27;97801.84;;;26.36;61.71
38880;BME280;25887;30.194;-97.880;2023-04-05T12:12:53;97811.38;;;26.38;62.01
38880;BME280;25887;30.194;-97.880;2023-04-05T12:15:20;97815.69;;;26.40;61.96
38880;BME280;25887;30.194;-97.880;2023-04-05T12:17:47;97832.09;;;26.43;61.83
38880;BME280;25887;30.194;-97.880;2023-04-05T12:20:19;97830.28;;;26.44;61.48
38880;BME280;25887;30.194;-97.880;2023-04-05T12:22:48;97861.78;;;26.45;61.71
38880;BME280;25887;30.194;-97.880;2023-04-05T12:25:15;97878.34;;;26.47;61.68
38880;BME280;25887;30.194;-97.880;2023-04-05T12:27:43;97862.53;;;26.47;61.67
38880;BME280;25887;30.194;-97.880;2023-04-05T12:30:21;97859.78;;;26.49;61.59
38880;BME280;25887;30.194;-97.880;2023-04-05T12:32:50;97886.25;;;26.47;61.99
38880;BME280;25887;30.194;-97.880;2023-04-05T12:35:27;97893.09;;;26.50;61.46
38880;BME280;25887;30.194;-97.880;2023-04-05T12:38:04;97908.78;;;26.51;61.75
38880;BME280;25887;30.194;-97.880;2023-04-05T12:40:32;97963.97;;;26.53;61.73
38880;BME280;25887;30.194;-97.880;2023-04-05T12:43:06;97998.56;;;26.48;60.79
38880;BME280;25887;30.194;-97.880;2023-04-05T12:45:33;97988.44;;;26.29;59.19
38880;BME280;25887;30.194;-97.880;2023-04-05T12:48:11;97972.91;;;26.01;57.95
38880;BME280;25887;30.194;-97.880;2023-04-05T12:50:45;97980.78;;;25.75;57.69
38880;BME280;25887;30.194;-97.880;2023-04-05T12:53:22;97967.56;;;25.50;57.52
38880;BME280;25887;30.194;-97.880;2023-04-05T12:55:57;98011.78;;;25.18;56.06
38880;BME280;25887;30.194;-97.880;2023-04-05T12:58:36;98046.94;;;24.88;55.47
38880;BME280;25887;30.194;-97.880;2023-04-05T13:01:03;98047.47;;;24.52;54.98
38880;BME280;25887;30.194;-97.880;2023-04-05T13:03:29;98078.19;;;24.22;54.37
38880;BME280;25887;30.194;-97.880;2023-04-05T13:06:05;98109.63;;;23.93;54.89
38880;BME280;25887;30.194;-97.880;2023-04-05T13:08:31;98160.72;;;23.72;55.20
38880;BME280;25887;30.194;-97.880;2023-04-05T13:10:58;98196.84;;;23.51;54.80
38880;BME280;25887;30.194;-97.880;2023-04-05T13:13:24;98225.72;;;23.33;54.95
38880;BME280;25887;30.194;-97.880;2023-04-05T13:15:50;98244.31;;;23.13;53.55
38880;BME280;25887;30.194;-97.880;2023-04-05T13:18:16;98263.94;;;22.89;52.75
38880;BME280;25887;30.194;-97.880;2023-04-05T13:20:46;98280.81;;;22.66;52.79
38880;BME280;25887;30.194;-97.880;2023-04-05T13:23:12;98265.16;;;22.47;52.16
38880;BME280;25887;30.194;-97.880;2023-04-05T13:25:40;98270.31;;;22.31;52.33